首页
METAR-TAF:

METAR-TAF

机场 :

佩鲁贾, 意大利

纬度: 43-05N, 经度: 012-30E, 海拔: 208米

当前天气观测

该预报发布于46分钟前的10:50 UTC
风速15节,风向北转东北
温度 10°C
湿度 66%
气压 1024 hPa
能见度10公里或以上
散云层高于3000英尺

METAR: LIRZ 191050Z 02015KT 9999 SCT030 10/04 Q1024

时间: 12:36 (11:36 UTC)

预报

该预报发布于6小时和36分钟前的05:00 UTC
预报有效从19日的 06点(UTC)到 20日的 06点(UTC)
风速5节,风向多变
能见度10公里或以上
少量云层高于3000英尺
成为
从 19日的 08点(UTC)到 19日的 10点(UTC)
风速10节,风向东北

TAF: LIRZ 190500Z 1906/2006 VRB05KT 9999 FEW030 BECMG 1908/1910 04010KT

超过4000个机场的气象观测和天气预报(METAR&TAF报告)。

可查询的气象台以黄色和红色小点在地图上表示。

将鼠标移到小点上方,可查看气象台名称。

然后点击查看天气观测和预报。

如需切换地图:点击带黑十字的绿色按钮放大地图;点击带横线的绿色按钮缩小地图;或者点击绿色箭头查看邻近地区的地图。


METAR-TAF: